Time;durP1;ratioP1;P1;durP2;ratioP2;P2;SDS_P1;SDS_P2;PMS_P1;PMS_P2;Temp;Humidity;BMP_temperature;BMP_pressure;BME280_temperature;BME280_humidity;BME280_pressure;Samples;Min_cycle;Max_cycle;Signal;HPM_P1;HPM_P2
2020/12/18 00:00:05;;;;;;;11.93;3.57;;;8.70;90.00;;;;;;4869870;29;20096;-92
2020/12/18 00:02:30;;;;;;;12.63;3.57;;;8.60;90.00;;;;;;4869492;29;20039;-92
2020/12/18 00:04:56;;;;;;;16.03;3.73;;;8.60;90.00;;;;;;4869779;29;20013;-92
2020/12/18 00:07:23;;;;;;;13.57;3.73;;;8.70;90.10;;;;;;4869858;29;20033;-92
2020/12/18 00:09:48;;;;;;;13.80;4.17;;;8.70;90.10;;;;;;4869056;29;20081;-94
2020/12/18 00:12:14;;;;;;;12.40;3.40;;;8.70;90.00;;;;;;4869526;29;20154;-93
2020/12/18 00:14:39;;;;;;;14.50;4.17;;;8.70;90.10;;;;;;4869695;29;20121;-93
2020/12/18 00:17:05;;;;;;;11.77;3.80;;;8.70;90.00;;;;;;4869846;29;20014;-94
2020/12/18 00:19:32;;;;;;;13.03;3.87;;;8.70;89.90;;;;;;4869541;29;20026;-93
2020/12/18 00:21:58;;;;;;;13.87;4.10;;;8.60;90.00;;;;;;4869372;29;20017;-90
2020/12/18 00:24:24;;;;;;;19.03;4.17;;;8.70;90.00;;;;;;4869469;29;20101;-91
2020/12/18 00:26:50;;;;;;;14.63;4.17;;;8.60;90.00;;;;;;4869563;29;20042;-89
2020/12/18 00:29:15;;;;;;;14.17;4.57;;;8.70;90.00;;;;;;4869164;29;20015;-91
2020/12/18 00:31:41;;;;;;;14.13;4.10;;;8.70;90.00;;;;;;4869139;29;20028;-93
2020/12/18 00:34:07;;;;;;;14.57;4.10;;;8.60;90.00;;;;;;4869433;29;20036;-92
2020/12/18 00:36:33;;;;;;;13.97;4.10;;;8.60;90.10;;;;;;4869162;29;20034;-92
2020/12/18 00:38:59;;;;;;;15.10;4.73;;;8.60;90.10;;;;;;4869450;29;20022;-92
2020/12/18 00:41:25;;;;;;;14.60;4.37;;;8.70;90.00;;;;;;4869315;29;20022;-93
2020/12/18 00:43:50;;;;;;;15.93;4.83;;;8.70;90.00;;;;;;4869343;29;20013;-93
2020/12/18 00:46:16;;;;;;;14.10;4.10;;;8.70;89.90;;;;;;4869618;29;20021;-92
2020/12/18 00:48:41;;;;;;;13.73;4.23;;;8.70;89.50;;;;;;4869446;29;20018;-92
2020/12/18 00:51:07;;;;;;;15.37;4.50;;;8.70;89.50;;;;;;4869101;29;20021;-91
2020/12/18 00:53:36;;;;;;;12.30;4.40;;;8.70;89.40;;;;;;4869209;29;20091;-92
2020/12/18 00:56:09;;;;;;;14.77;4.90;;;8.70;89.70;;;;;;4869462;29;20029;-92
2020/12/18 00:58:36;;;;;;;11.97;4.40;;;8.70;89.80;;;;;;4869348;29;20074;-93
2020/12/18 01:01:03;;;;;;;14.13;4.07;;;8.60;89.80;;;;;;4869069;29;20048;-92
2020/12/18 01:03:29;;;;;;;13.97;5.10;;;8.70;89.60;;;;;;4869142;29;20017;-93
2020/12/18 01:05:55;;;;;;;13.57;4.13;;;8.60;89.60;;;;;;4869336;29;20062;-91
2020/12/18 01:08:21;;;;;;;13.03;4.57;;;8.60;89.80;;;;;;4869205;29;20053;-92
2020/12/18 01:10:47;;;;;;;14.93;5.57;;;8.50;89.80;;;;;;4872069;29;20044;-91
2020/12/18 01:13:12;;;;;;;12.83;4.23;;;8.50;89.80;;;;;;4872311;29;20025;-91
2020/12/18 01:15:38;;;;;;;17.40;4.90;;;8.50;90.00;;;;;;4872554;29;20060;-91
2020/12/18 01:18:03;;;;;;;13.57;4.50;;;8.50;89.90;;;;;;4872406;29;20097;-91
2020/12/18 01:20:29;;;;;;;15.53;4.80;;;8.50;90.00;;;;;;4872490;29;20018;-90
2020/12/18 01:22:54;;;;;;;16.27;4.47;;;8.50;90.10;;;;;;4872184;29;20014;-91
2020/12/18 01:25:20;;;;;;;18.07;5.00;;;8.40;90.00;;;;;;4872458;29;20041;-92
2020/12/18 01:27:46;;;;;;;13.73;4.17;;;8.40;90.10;;;;;;4872421;29;20022;-90
2020/12/18 01:30:12;;;;;;;14.40;4.53;;;8.50;90.00;;;;;;4871907;29;20046;-93
2020/12/18 01:32:37;;;;;;;16.10;4.80;;;8.40;90.00;;;;;;4871910;29;20045;-92
2020/12/18 01:35:04;;;;;;;13.97;5.10;;;8.40;90.00;;;;;;4871904;29;20064;-90
2020/12/18 01:37:29;;;;;;;14.87;4.83;;;8.40;90.00;;;;;;4872073;29;20014;-92
2020/12/18 01:39:55;;;;;;;20.37;5.50;;;8.40;90.10;;;;;;4872025;29;20022;-90
2020/12/18 01:42:21;;;;;;;17.07;5.50;;;8.40;90.10;;;;;;4871905;29;20043;-91
2020/12/18 01:44:46;;;;;;;13.27;4.60;;;8.40;90.00;;;;;;4871909;29;20028;-91
2020/12/18 01:47:23;;;;;;;12.10;4.83;;;8.30;90.10;;;;;;4871993;29;20022;-93
2020/12/18 01:49:49;;;;;;;12.97;4.63;;;8.30;90.20;;;;;;4871536;29;20071;-91
2020/12/18 01:52:15;;;;;;;14.40;5.20;;;8.30;90.10;;;;;;4871642;29;20050;-93
2020/12/18 01:54:41;;;;;;;14.97;5.37;;;8.30;90.10;;;;;;4871740;29;20092;-92
2020/12/18 01:57:07;;;;;;;17.63;5.27;;;8.30;90.20;;;;;;4871839;29;20070;-91
2020/12/18 01:59:33;;;;;;;15.97;5.20;;;8.30;90.20;;;;;;4871764;29;20026;-93
2020/12/18 02:01:59;;;;;;;14.07;5.27;;;8.30;90.20;;;;;;4871318;29;20021;-92
2020/12/18 02:04:24;;;;;;;16.60;5.30;;;8.30;90.30;;;;;;4871783;29;20050;-93
2020/12/18 02:06:54;;;;;;;16.20;4.80;;;8.20;90.30;;;;;;4871620;29;20014;-93
2020/12/18 02:09:20;;;;;;;13.40;4.80;;;8.20;90.30;;;;;;4871371;29;20018;-92
2020/12/18 02:11:46;;;;;;;16.10;5.20;;;8.20;90.40;;;;;;4871176;29;20071;-91
2020/12/18 02:14:13;;;;;;;16.93;5.60;;;8.20;90.30;;;;;;4871246;29;20026;-90
2020/12/18 02:16:39;;;;;;;15.57;5.10;;;8.20;90.20;;;;;;4871422;29;20024;-91
2020/12/18 02:19:07;;;;;;;14.03;4.77;;;8.20;90.30;;;;;;4871389;29;20030;-91
2020/12/18 02:21:38;;;;;;;14.50;5.13;;;8.20;90.40;;;;;;4870124;29;20046;-89
2020/12/18 02:24:04;;;;;;;14.83;4.97;;;8.20;90.30;;;;;;4871128;29;20030;-91
2020/12/18 02:26:29;;;;;;;15.20;5.07;;;8.20;90.40;;;;;;4871253;29;20029;-91
2020/12/18 02:28:55;;;;;;;14.47;4.33;;;8.20;90.40;;;;;;4871148;29;20032;-89
2020/12/18 02:31:21;;;;;;;14.50;5.10;;;8.20;90.50;;;;;;4870566;29;20014;-92
2020/12/18 02:33:47;;;;;;;16.23;4.90;;;8.20;90.40;;;;;;4870796;29;20089;-91
2020/12/18 02:36:13;;;;;;;17.30;5.40;;;8.20;90.40;;;;;;4870909;29;20048;-91
2020/12/18 02:38:39;;;;;;;18.87;5.40;;;8.20;90.50;;;;;;4870958;29;20076;-91
2020/12/18 02:41:05;;;;;;;13.93;5.03;;;8.20;90.50;;;;;;4871021;29;20022;-93
2020/12/18 02:43:31;;;;;;;16.17;5.57;;;8.20;90.40;;;;;;4870699;29;20104;-91
2020/12/18 02:45:57;;;;;;;13.40;4.57;;;8.20;90.40;;;;;;4870815;29;20014;-91
2020/12/18 02:48:23;;;;;;;18.57;5.37;;;8.20;90.40;;;;;;4871004;29;20022;-92
2020/12/18 02:50:49;;;;;;;14.47;5.10;;;8.20;90.40;;;;;;4870370;29;20145;-89
2020/12/18 02:53:17;;;;;;;16.03;4.90;;;8.10;90.40;;;;;;4870584;29;20047;-91
2020/12/18 02:55:43;;;;;;;14.20;4.63;;;8.20;90.40;;;;;;4870734;29;20026;-91
2020/12/18 02:58:09;;;;;;;14.73;4.97;;;8.20;90.40;;;;;;4870572;29;20021;-91
2020/12/18 03:00:36;;;;;;;18.87;5.10;;;8.20;90.30;;;;;;4870448;29;20021;-91
2020/12/18 03:03:03;;;;;;;17.60;4.97;;;8.20;90.30;;;;;;4870269;29;20028;-91
2020/12/18 03:05:28;;;;;;;16.80;4.73;;;8.20;90.30;;;;;;4870363;29;20018;-91
2020/12/18 03:07:54;;;;;;;15.13;5.07;;;8.20;90.40;;;;;;4870535;29;20054;-91
2020/12/18 03:10:20;;;;;;;14.73;4.93;;;8.20;90.40;;;;;;4869970;29;20085;-91
2020/12/18 03:12:46;;;;;;;16.53;4.77;;;8.10;90.40;;;;;;4870317;29;20021;-91
2020/12/18 03:15:12;;;;;;;13.53;4.63;;;8.20;90.40;;;;;;4870326;29;20097;-92
2020/12/18 03:17:37;;;;;;;12.67;4.80;;;8.10;90.30;;;;;;4870288;29;20055;-90
2020/12/18 03:20:04;;;;;;;13.97;4.10;;;8.10;90.40;;;;;;4870324;29;20032;-91
2020/12/18 03:22:31;;;;;;;12.63;4.70;;;8.20;90.50;;;;;;4869944;29;20022;-91
2020/12/18 03:24:57;;;;;;;16.20;4.97;;;8.10;90.40;;;;;;4870179;29;20029;-91
2020/12/18 03:27:23;;;;;;;14.50;4.50;;;8.10;90.50;;;;;;4870196;29;20052;-91
2020/12/18 03:29:49;;;;;;;17.07;5.20;;;8.10;90.30;;;;;;4869688;29;20014;-91
2020/12/18 03:32:14;;;;;;;11.07;4.43;;;8.20;90.40;;;;;;4867684;29;20041;-90
2020/12/18 03:34:40;;;;;;;14.03;4.50;;;8.10;90.30;;;;;;4869811;29;20042;-90
2020/12/18 03:37:05;;;;;;;14.60;4.47;;;8.10;90.40;;;;;;4870107;29;20095;-93
2020/12/18 03:39:31;;;;;;;14.20;4.40;;;8.10;90.30;;;;;;4870009;29;20025;-91
2020/12/18 03:41:56;;;;;;;16.93;4.57;;;8.10;90.40;;;;;;4869683;29;20028;-92
2020/12/18 03:44:22;;;;;;;16.97;4.77;;;8.10;90.40;;;;;;4869971;29;20028;-90
2020/12/18 03:46:47;;;;;;;13.80;4.60;;;8.10;90.40;;;;;;4870166;29;20049;-92
2020/12/18 03:49:13;;;;;;;10.90;4.30;;;8.10;90.50;;;;;;4870253;29;20025;-92
2020/12/18 03:51:39;;;;;;;12.07;4.13;;;8.10;90.40;;;;;;4869434;29;20083;-92
2020/12/18 03:54:04;;;;;;;12.23;4.33;;;8.10;90.50;;;;;;4867872;29;20029;-90
2020/12/18 03:56:30;;;;;;;11.80;4.27;;;8.10;90.50;;;;;;4869542;29;20038;-91
2020/12/18 03:58:55;;;;;;;13.70;4.50;;;8.10;90.40;;;;;;4869718;29;20021;-91
2020/12/18 04:01:21;;;;;;;11.77;4.37;;;8.10;90.30;;;;;;4869582;29;20082;-91
2020/12/18 04:03:46;;;;;;;12.37;4.00;;;8.10;90.40;;;;;;4869503;29;20043;-91
2020/12/18 04:06:12;;;;;;;15.60;4.20;;;8.10;90.40;;;;;;4869445;29;20014;-91
2020/12/18 04:08:37;;;;;;;12.23;4.10;;;8.10;90.40;;;;;;4869723;29;20021;-91
2020/12/18 04:11:03;;;;;;;14.40;4.20;;;8.10;90.40;;;;;;4869172;29;20040;-91
2020/12/18 04:13:28;;;;;;;13.43;4.07;;;8.10;90.40;;;;;;4869617;29;20043;-91
2020/12/18 04:15:54;;;;;;;12.23;3.90;;;8.10;90.40;;;;;;4867627;29;20040;-92
2020/12/18 04:18:20;;;;;;;14.70;4.03;;;8.10;90.40;;;;;;4869316;29;20069;-90
2020/12/18 04:20:45;;;;;;;13.80;4.00;;;8.10;90.40;;;;;;4869592;29;20025;-90
2020/12/18 04:23:11;;;;;;;12.77;4.13;;;8.10;90.40;;;;;;4869360;29;20093;-92
2020/12/18 04:25:36;;;;;;;11.47;3.90;;;8.00;90.40;;;;;;4869502;29;20022;-91
2020/12/18 04:28:02;;;;;;;13.83;3.83;;;8.10;90.50;;;;;;4869441;29;20051;-91
2020/12/18 04:30:28;;;;;;;13.27;3.80;;;8.00;90.40;;;;;;4868985;29;20025;-91
2020/12/18 04:32:53;;;;;;;14.10;4.30;;;8.00;90.50;;;;;;4869292;29;20026;-91
2020/12/18 04:35:19;;;;;;;14.00;3.70;;;8.00;90.50;;;;;;4869165;29;20065;-92
2020/12/18 04:37:45;;;;;;;14.77;4.30;;;8.00;90.60;;;;;;4869308;29;20018;-90
2020/12/18 04:40:10;;;;;;;13.77;3.80;;;8.00;90.50;;;;;;4869298;29;20032;-90
2020/12/18 04:42:36;;;;;;;15.57;4.10;;;8.00;90.50;;;;;;4869171;29;20018;-90
2020/12/18 04:45:03;;;;;;;12.60;3.53;;;8.00;90.50;;;;;;4871991;29;20022;-90
2020/12/18 04:47:31;;;;;;;12.07;3.87;;;8.00;90.40;;;;;;4872903;29;20022;-91
2020/12/18 04:49:58;;;;;;;14.40;4.03;;;8.00;90.40;;;;;;4872815;29;20021;-91
2020/12/18 04:52:29;;;;;;;11.57;3.63;;;8.00;90.50;;;;;;4872383;29;20032;-91
2020/12/18 04:54:58;;;;;;;10.33;3.53;;;8.00;90.50;;;;;;4872665;29;20062;-91
2020/12/18 04:57:28;;;;;;;11.03;4.23;;;8.00;90.60;;;;;;4872595;29;20025;-91
2020/12/18 04:59:54;;;;;;;9.73;3.43;;;8.00;90.60;;;;;;4872842;29;20046;-91
2020/12/18 05:02:21;;;;;;;13.80;3.67;;;7.90;90.60;;;;;;4872308;29;20105;-92
2020/12/18 05:04:47;;;;;;;13.73;3.43;;;7.90;90.60;;;;;;4872608;29;20089;-91
2020/12/18 05:07:13;;;;;;;9.93;3.40;;;8.00;90.90;;;;;;4872193;29;20049;-91
2020/12/18 05:09:39;;;;;;;10.43;3.47;;;7.90;90.60;;;;;;4872444;29;20109;-91
2020/12/18 05:12:09;;;;;;;14.83;3.70;;;8.00;90.60;;;;;;4871963;29;20025;-91
2020/12/18 05:14:35;;;;;;;11.30;3.70;;;7.90;90.60;;;;;;4872459;29;20125;-91
2020/12/18 05:17:08;;;;;;;13.80;4.47;;;7.90;90.60;;;;;;4872280;29;20090;-91
2020/12/18 05:19:35;;;;;;;13.03;3.37;;;8.00;90.60;;;;;;4872404;29;20032;-90
2020/12/18 05:22:03;;;;;;;10.77;3.30;;;8.00;90.50;;;;;;4872227;29;20053;-91
2020/12/18 05:24:30;;;;;;;12.27;3.37;;;7.90;90.50;;;;;;4872243;29;20046;-92
2020/12/18 05:26:56;;;;;;;12.30;3.93;;;7.90;90.60;;;;;;4872163;29;20017;-92
2020/12/18 05:29:23;;;;;;;11.07;3.27;;;7.90;90.60;;;;;;4872177;29;20038;-93
2020/12/18 05:31:48;;;;;;;12.63;3.47;;;7.90;90.60;;;;;;4871361;29;20033;-93
2020/12/18 05:34:15;;;;;;;12.23;3.80;;;7.90;90.60;;;;;;4872099;29;20117;-92
2020/12/18 05:36:42;;;;;;;12.63;3.87;;;7.90;90.60;;;;;;4871981;29;20065;-92
2020/12/18 05:39:09;;;;;;;10.93;3.57;;;7.90;90.60;;;;;;4871886;29;20018;-92
2020/12/18 05:41:35;;;;;;;10.23;3.40;;;7.90;90.60;;;;;;4871879;29;20020;-90
2020/12/18 05:44:06;;;;;;;12.47;3.97;;;7.90;90.70;;;;;;4871901;29;20021;-90
2020/12/18 05:46:34;;;;;;;14.63;3.30;;;7.90;90.60;;;;;;4871670;29;20072;-90
2020/12/18 05:49:02;;;;;;;17.20;3.63;;;7.90;90.50;;;;;;4871565;29;20045;-91
2020/12/18 05:51:39;;;;;;;11.83;4.03;;;7.90;90.50;;;;;;4871231;29;20037;-90
2020/12/18 05:54:14;;;;;;;11.37;3.73;;;7.90;90.50;;;;;;4871535;29;20045;-90
2020/12/18 05:56:44;;;;;;;13.07;3.50;;;7.90;90.40;;;;;;4871584;29;20054;-90
2020/12/18 05:59:12;;;;;;;13.80;4.00;;;7.90;90.50;;;;;;4864201;29;20437;-83
2020/12/18 06:01:43;;;;;;;17.43;4.80;;;7.90;90.50;;;;;;4866543;29;20049;-82
2020/12/18 06:04:16;;;;;;;12.90;3.90;;;7.90;90.50;;;;;;4867879;29;20033;-82
2020/12/18 06:06:44;;;;;;;15.63;3.97;;;7.90;90.40;;;;;;4884740;29;20516;-83
2020/12/18 06:09:10;;;;;;;15.53;4.20;;;7.90;90.30;;;;;;4884335;29;20424;-82
2020/12/18 06:11:37;;;;;;;13.77;3.83;;;7.90;90.40;;;;;;4866932;29;20029;-84
2020/12/18 06:14:06;;;;;;;10.90;3.80;;;7.90;90.40;;;;;;4867240;29;20033;-84
2020/12/18 06:16:36;;;;;;;10.43;3.20;;;7.90;90.40;;;;;;4867042;29;20064;-84
2020/12/18 06:19:07;;;;;;;13.30;3.23;;;7.90;90.40;;;;;;4867095;29;20037;-84
2020/12/18 06:21:33;;;;;;;10.03;3.00;;;7.90;90.30;;;;;;4866736;29;20029;-84
2020/12/18 06:24:00;;;;;;;12.53;3.47;;;7.90;90.40;;;;;;4866944;29;20471;-84
2020/12/18 06:26:26;;;;;;;15.97;3.80;;;7.90;90.30;;;;;;4884421;29;20103;-84
2020/12/18 06:28:52;;;;;;;10.07;3.20;;;7.90;90.30;;;;;;4866916;29;20373;-83
2020/12/18 06:31:25;;;;;;;11.97;3.17;;;7.90;90.30;;;;;;4883307;29;20081;-84
2020/12/18 06:33:55;;;;;;;12.53;3.30;;;7.90;90.20;;;;;;4883983;29;20634;-84
2020/12/18 06:36:43;;;;;;;12.00;3.50;;;7.90;90.20;;;;;;4866525;29;20051;-85
2020/12/18 06:39:34;;;;;;;11.33;3.77;;;7.90;90.10;;;;;;4866490;29;20025;-82
2020/12/18 06:42:22;;;;;;;12.43;3.63;;;7.90;90.20;;;;;;4883442;29;20025;-84
2020/12/18 06:44:55;;;;;;;15.57;3.88;;;7.90;90.20;;;;;;4883638;29;20481;-82
2020/12/18 06:47:29;;;;;;;14.40;3.90;;;7.90;90.20;;;;;;4873550;29;20428;-84
2020/12/18 06:49:54;;;;;;;13.87;3.90;;;7.90;90.20;;;;;;4864459;29;20044;-83
2020/12/18 06:52:52;;;;;;;12.00;3.50;;;7.80;90.20;;;;;;4877444;29;20033;-83
2020/12/18 06:55:27;;;;;;;13.67;3.40;;;7.80;90.20;;;;;;4866525;29;20044;-83
2020/12/18 06:58:11;;;;;;;7.90;3.07;;;7.90;90.20;;;;;;4883317;29;20044;-82
2020/12/18 07:00:57;;;;;;;12.80;3.50;;;7.90;90.10;;;;;;4866476;29;20029;-87
2020/12/18 07:03:32;;;;;;;9.73;3.00;;;7.80;90.10;;;;;;4865936;29;20061;-83
2020/12/18 07:06:02;;;;;;;11.60;3.47;;;7.80;90.10;;;;;;4865603;29;20029;-84
2020/12/18 07:08:30;;;;;;;13.43;3.60;;;7.80;90.20;;;;;;4864947;29;20036;-84
2020/12/18 07:11:00;;;;;;;12.18;3.35;;;7.80;90.20;;;;;;4866044;29;20040;-83
2020/12/18 07:13:28;;;;;;;9.70;3.00;;;7.80;90.10;;;;;;4865281;29;20040;-83
2020/12/18 07:15:58;;;;;;;12.00;3.70;;;7.80;90.00;;;;;;4882411;29;20329;-84
2020/12/18 07:18:23;;;;;;;;;;;7.80;90.10;;;;;;4883173;29;20142;-85
2020/12/18 07:20:50;;;;;;;13.53;3.30;;;7.70;89.90;;;;;;4882359;29;19955;-84
2020/12/18 07:23:17;;;;;;;10.50;3.50;;;7.70;90.20;;;;;;4884073;29;20029;-85
2020/12/18 07:25:43;;;;;;;10.40;3.90;;;7.70;90.10;;;;;;4883051;29;20365;-83
2020/12/18 07:28:09;;;;;;;10.53;3.50;;;7.60;90.20;;;;;;4866173;29;20040;-85
2020/12/18 07:30:40;;;;;;;13.73;3.30;;;7.70;90.30;;;;;;4883574;29;20033;-82
2020/12/18 07:33:06;;;;;;;13.47;3.50;;;7.60;90.30;;;;;;4865738;29;20064;-84
2020/12/18 07:35:41;;;;;;;10.30;3.50;;;7.60;90.40;;;;;;4882085;29;20435;-83
2020/12/18 07:38:17;;;;;;;15.50;3.70;;;7.60;90.30;;;;;;4865257;29;20101;-84
2020/12/18 07:40:44;;;;;;;9.53;3.00;;;7.60;90.30;;;;;;4866191;29;20120;-82
2020/12/18 07:43:14;;;;;;;14.73;3.80;;;7.60;90.40;;;;;;4864838;29;20396;-84
2020/12/18 07:45:46;;;;;;;12.93;3.40;;;7.60;90.30;;;;;;4882972;29;20060;-83
2020/12/18 07:48:17;;;;;;;10.67;4.07;;;7.60;90.40;;;;;;4859358;29;20510;-83
2020/12/18 07:50:57;;;;;;;11.57;3.17;;;7.50;90.40;;;;;;4882667;29;20028;-85
2020/12/18 07:53:23;;;;;;;9.90;3.33;;;7.60;90.40;;;;;;4882085;29;20088;-87
2020/12/18 07:56:01;;;;;;;10.30;3.47;;;7.60;90.40;;;;;;4866262;29;20403;-85
2020/12/18 07:58:27;;;;;;;14.57;3.50;;;7.50;90.20;;;;;;4864876;29;20026;-82
2020/12/18 08:01:10;;;;;;;12.10;3.57;;;7.50;90.40;;;;;;4865457;29;20401;-83
2020/12/18 08:03:44;;;;;;;11.70;3.50;;;7.50;90.40;;;;;;4883083;29;20024;-84
2020/12/18 08:06:22;;;;;;;14.27;3.73;;;7.50;90.40;;;;;;4867272;29;20032;-84
2020/12/18 08:08:50;;;;;;;14.07;3.90;;;7.50;90.60;;;;;;4867335;29;20045;-85
2020/12/18 08:11:17;;;;;;;13.93;3.73;;;7.50;90.40;;;;;;4868178;29;20058;-84
2020/12/18 08:13:42;;;;;;;11.40;3.33;;;7.50;90.40;;;;;;4866089;29;20041;-87
2020/12/18 08:16:19;;;;;;;15.77;3.70;;;7.60;90.40;;;;;;4867539;29;20112;-92
2020/12/18 08:18:48;;;;;;;9.73;3.20;;;7.60;90.40;;;;;;4873281;29;20035;-92
2020/12/18 08:21:18;;;;;;;11.27;3.15;;;7.60;90.40;;;;;;4875246;29;20080;-91
2020/12/18 08:23:47;;;;;;;11.83;3.57;;;7.60;90.40;;;;;;4871767;29;20040;-90
2020/12/18 08:26:13;;;;;;;13.57;3.60;;;7.60;90.20;;;;;;4870661;29;20033;-89
2020/12/18 08:28:40;;;;;;;13.43;3.27;;;7.60;90.20;;;;;;4892857;29;20049;-91
2020/12/18 08:31:08;;;;;;;14.60;3.70;;;7.60;90.30;;;;;;4859664;29;20029;-90
2020/12/18 08:33:47;;;;;;;11.73;3.03;;;7.60;90.30;;;;;;4869210;29;20444;-90
2020/12/18 08:36:15;;;;;;;12.13;4.33;;;7.60;90.30;;;;;;4868613;29;20041;-90
2020/12/18 08:38:41;;;;;;;11.00;3.10;;;7.60;90.30;;;;;;4865859;29;20045;-89
2020/12/18 08:41:06;;;;;;;11.93;3.30;;;7.60;90.20;;;;;;4854590;29;20427;-90
2020/12/18 08:43:32;;;;;;;13.13;3.13;;;7.70;90.20;;;;;;4858295;29;20040;-88
2020/12/18 08:45:58;;;;;;;11.80;2.97;;;7.70;90.10;;;;;;4862176;29;20033;-90
2020/12/18 08:48:26;;;;;;;11.73;3.13;;;7.70;90.10;;;;;;4859459;29;20097;-90
2020/12/18 08:51:02;;;;;;;12.98;3.67;;;7.70;90.10;;;;;;4855161;29;20036;-90
2020/12/18 08:53:35;;;;;;;18.17;4.30;;;7.70;90.10;;;;;;4862193;29;20390;-88
2020/12/18 08:56:08;;;;;;;13.50;3.77;;;7.70;89.90;;;;;;4864484;29;20048;-88
2020/12/18 08:58:34;;;;;;;14.03;3.80;;;7.70;90.00;;;;;;4881577;29;20033;-91
2020/12/18 09:01:00;;;;;;;15.80;3.67;;;7.70;90.00;;;;;;4862227;29;20059;-92
2020/12/18 09:03:26;;;;;;;13.93;3.80;;;7.70;90.00;;;;;;4868026;29;20147;-90
2020/12/18 09:05:52;;;;;;;13.47;3.50;;;7.70;90.00;;;;;;4864268;29;20406;-90
2020/12/18 09:08:19;;;;;;;13.10;3.40;;;7.80;90.00;;;;;;4859601;29;20104;-89
2020/12/18 09:10:50;;;;;;;14.40;3.90;;;7.80;90.00;;;;;;4869868;29;20423;-91
2020/12/18 09:13:26;;;;;;;14.00;3.53;;;7.80;90.00;;;;;;4869646;29;20047;-90
2020/12/18 09:15:59;;;;;;;10.23;2.77;;;7.80;89.90;;;;;;4870366;29;20036;-90
2020/12/18 09:18:26;;;;;;;12.23;2.70;;;7.90;89.90;;;;;;4866335;29;20029;-90
2020/12/18 09:20:53;;;;;;;14.43;2.73;;;7.90;89.70;;;;;;4864441;29;20033;-90
2020/12/18 09:23:32;;;;;;;11.63;2.73;;;7.90;89.80;;;;;;4866843;29;20028;-90
2020/12/18 09:26:00;;;;;;;9.43;2.97;;;8.00;89.80;;;;;;4861893;29;20032;-90
2020/12/18 09:28:26;;;;;;;10.13;2.70;;;8.00;89.60;;;;;;4863049;29;20037;-90
2020/12/18 09:30:57;;;;;;;13.03;3.27;;;8.10;89.10;;;;;;4860532;29;20047;-90
2020/12/18 09:33:32;;;;;;;9.87;2.80;;;8.10;89.50;;;;;;4862674;29;20057;-91
2020/12/18 09:36:05;;;;;;;11.40;2.97;;;8.20;89.20;;;;;;4868755;29;20097;-91
2020/12/18 09:38:33;;;;;;;13.13;3.27;;;8.30;89.10;;;;;;4861415;29;20041;-89
2020/12/18 09:41:01;;;;;;;11.70;3.00;;;8.30;88.70;;;;;;4861705;29;20551;-89
2020/12/18 09:43:27;;;;;;;9.73;2.50;;;8.40;88.40;;;;;;4863072;29;20208;-89
2020/12/18 09:45:54;;;;;;;9.90;3.33;;;8.50;88.40;;;;;;4861986;29;20059;-90
2020/12/18 09:48:20;;;;;;;13.03;2.80;;;8.50;87.80;;;;;;4860708;29;20047;-89
2020/12/18 09:50:49;;;;;;;12.23;3.20;;;8.50;87.90;;;;;;4863272;29;20562;-89
2020/12/18 09:53:15;;;;;;;15.57;3.77;;;8.60;87.90;;;;;;4865395;29;20120;-91
2020/12/18 09:55:41;;;;;;;12.07;2.93;;;8.70;87.80;;;;;;4864711;29;20128;-90
2020/12/18 09:58:07;;;;;;;8.57;2.67;;;8.80;87.50;;;;;;4865544;29;20032;-90
2020/12/18 10:00:33;;;;;;;11.97;2.53;;;8.90;86.90;;;;;;4882198;29;20032;-92
2020/12/18 10:02:58;;;;;;;10.20;2.87;;;9.10;86.60;;;;;;4882325;29;20040;-89
2020/12/18 10:05:25;;;;;;;11.17;3.10;;;9.20;86.30;;;;;;4876893;29;20076;-89
2020/12/18 10:07:52;;;;;;;11.53;2.90;;;9.20;85.70;;;;;;4898102;29;20044;-90
2020/12/18 10:10:17;;;;;;;10.40;3.00;;;9.30;85.70;;;;;;4876582;29;20036;-93
2020/12/18 10:12:43;;;;;;;12.70;2.30;;;9.30;85.60;;;;;;4870644;29;20020;-90
2020/12/18 10:15:09;;;;;;;10.90;2.60;;;9.30;85.50;;;;;;4884131;29;20043;-90
2020/12/18 10:17:34;;;;;;;10.90;3.40;;;9.40;85.50;;;;;;4885268;29;20115;-91
2020/12/18 10:20:00;;;;;;;10.17;2.80;;;9.40;85.20;;;;;;4884512;29;20037;-90
2020/12/18 10:22:26;;;;;;;8.40;2.47;;;9.40;85.40;;;;;;4887556;29;20024;-87
2020/12/18 10:24:52;;;;;;;11.50;2.63;;;9.40;85.40;;;;;;4876657;29;20073;-86
2020/12/18 10:27:18;;;;;;;7.93;2.40;;;9.40;85.20;;;;;;4861235;29;20037;-86
2020/12/18 10:29:43;;;;;;;11.70;2.73;;;9.40;85.30;;;;;;4872702;29;20040;-85
2020/12/18 10:32:09;;;;;;;9.37;2.90;;;9.40;85.40;;;;;;4861298;29;20378;-86
2020/12/18 10:34:35;;;;;;;9.17;2.27;;;9.40;85.30;;;;;;4862330;29;20044;-87
2020/12/18 10:37:00;;;;;;;8.73;2.40;;;9.40;85.40;;;;;;4878237;29;20136;-85
2020/12/18 10:39:26;;;;;;;8.23;2.50;;;9.50;85.60;;;;;;4875405;29;20032;-83
2020/12/18 10:41:53;;;;;;;14.27;2.73;;;9.50;85.60;;;;;;4862669;29;20029;-86
2020/12/18 10:44:19;;;;;;;8.47;2.30;;;9.50;85.40;;;;;;4860563;29;20076;-85
2020/12/18 10:46:48;;;;;;;11.37;2.50;;;9.50;85.50;;;;;;4858001;29;20218;-86
2020/12/18 10:49:17;;;;;;;8.02;2.58;;;9.50;85.50;;;;;;4861646;29;20128;-86
2020/12/18 10:51:45;;;;;;;9.47;2.43;;;9.50;85.40;;;;;;4856154;29;20107;-86
2020/12/18 10:54:11;;;;;;;9.93;2.77;;;9.60;85.30;;;;;;4857894;29;20174;-87
2020/12/18 10:56:44;;;;;;;12.77;2.73;;;9.60;85.20;;;;;;4857293;29;20037;-85
2020/12/18 10:59:11;;;;;;;7.93;2.40;;;9.60;85.10;;;;;;4864098;29;20088;-87
2020/12/18 11:01:37;;;;;;;12.13;2.50;;;9.60;85.20;;;;;;4856758;29;20037;-84
2020/12/18 11:04:06;;;;;;;14.07;3.30;;;9.60;85.20;;;;;;4860620;29;20044;-85
2020/12/18 11:06:32;;;;;;;12.63;2.80;;;9.50;85.10;;;;;;4856728;29;20033;-86
2020/12/18 11:08:58;;;;;;;9.70;2.53;;;9.50;85.30;;;;;;4866087;29;20041;-85
2020/12/18 11:11:24;;;;;;;11.57;3.03;;;9.50;85.50;;;;;;4856726;29;20116;-83
2020/12/18 11:13:50;;;;;;;7.50;2.40;;;9.50;85.40;;;;;;4879612;29;20033;-84
2020/12/18 11:16:17;;;;;;;13.17;3.00;;;9.50;85.40;;;;;;4879569;29;20059;-84
2020/12/18 11:18:43;;;;;;;9.33;2.47;;;9.60;85.40;;;;;;4860244;29;20039;-85
2020/12/18 11:21:09;;;;;;;8.57;2.50;;;9.60;85.00;;;;;;4857101;29;20044;-84
2020/12/18 11:23:36;;;;;;;12.70;2.80;;;9.60;84.90;;;;;;4854862;29;20041;-85
2020/12/18 11:26:02;;;;;;;10.90;2.70;;;9.60;84.80;;;;;;4857003;29;20368;-85
2020/12/18 11:28:28;;;;;;;12.47;2.73;;;9.60;84.50;;;;;;4877117;29;20073;-86
2020/12/18 11:30:54;;;;;;;10.27;2.70;;;9.60;84.90;;;;;;4854630;29;20509;-86
2020/12/18 11:33:19;;;;;;;8.07;2.60;;;9.60;85.10;;;;;;4869664;29;20037;-85
2020/12/18 11:35:45;;;;;;;11.27;2.93;;;9.60;84.90;;;;;;4853870;29;20163;-85
2020/12/18 11:38:11;;;;;;;11.03;3.73;;;9.60;85.00;;;;;;4855749;29;20033;-84
2020/12/18 11:40:36;;;;;;;9.40;2.70;;;9.60;85.10;;;;;;4865796;29;20029;-83
2020/12/18 11:43:02;;;;;;;9.37;3.10;;;9.50;85.30;;;;;;4884225;29;20029;-82
2020/12/18 11:45:28;;;;;;;12.60;2.80;;;9.50;85.40;;;;;;4879597;29;20033;-82
2020/12/18 11:47:53;;;;;;;9.53;2.70;;;9.50;85.50;;;;;;4868108;29;20041;-81
2020/12/18 11:50:19;;;;;;;12.63;2.80;;;9.40;85.70;;;;;;4850539;29;21246;-79
2020/12/18 11:52:45;;;;;;;11.53;2.70;;;9.40;85.70;;;;;;4874538;29;20053;-80
2020/12/18 11:55:10;;;;;;;11.47;3.10;;;9.40;85.90;;;;;;4856494;29;20045;-81
2020/12/18 11:57:36;;;;;;;10.33;3.10;;;9.40;85.60;;;;;;4863036;29;20059;-78
2020/12/18 12:00:04;;;;;;;10.73;2.93;;;9.40;86.00;;;;;;4862863;29;20036;-82
2020/12/18 12:02:29;;;;;;;13.30;3.10;;;9.40;85.90;;;;;;4881449;29;20036;-81
2020/12/18 12:04:55;;;;;;;10.10;2.67;;;9.50;86.10;;;;;;4865355;29;20127;-80
2020/12/18 12:07:20;;;;;;;13.60;2.92;;;9.50;85.90;;;;;;4864859;29;20079;-80
2020/12/18 12:09:46;;;;;;;9.67;2.53;;;9.60;85.70;;;;;;4880155;29;20044;-80
2020/12/18 12:12:12;;;;;;;9.63;2.43;;;9.60;85.80;;;;;;4862766;29;20041;-77
2020/12/18 12:14:38;;;;;;;10.23;2.70;;;9.70;85.70;;;;;;4879099;29;20170;-80
2020/12/18 12:17:03;;;;;;;10.93;2.65;;;9.80;85.60;;;;;;4866293;29;20070;-80
2020/12/18 12:19:30;;;;;;;12.05;2.70;;;9.80;85.20;;;;;;4872748;29;20041;-80
2020/12/18 12:21:56;;;;;;;11.18;3.03;;;9.80;85.10;;;;;;4863855;29;20033;-79
2020/12/18 12:24:21;;;;;;;10.67;2.53;;;9.80;85.20;;;;;;4880294;29;20045;-79
2020/12/18 12:26:49;;;;;;;10.13;3.40;;;9.80;84.90;;;;;;4881327;29;20093;-80
2020/12/18 12:29:16;;;;;;;8.27;2.97;;;9.90;85.00;;;;;;4880013;29;20068;-80
2020/12/18 12:31:41;;;;;;;9.88;2.60;;;9.90;85.10;;;;;;4880327;29;20652;-78
2020/12/18 12:34:07;;;;;;;12.60;2.65;;;9.90;84.90;;;;;;4862579;29;20037;-80
2020/12/18 12:36:33;;;;;;;13.55;2.78;;;10.00;84.60;;;;;;4878831;29;20515;-87
2020/12/18 12:38:58;;;;;;;7.40;2.00;;;10.10;84.60;;;;;;4863453;29;20071;-86
2020/12/18 12:41:24;;;;;;;8.82;2.40;;;10.10;84.20;;;;;;4862778;29;20036;-86
2020/12/18 12:43:51;;;;;;;8.60;2.50;;;10.20;84.40;;;;;;4862620;29;20040;-86
2020/12/18 12:46:16;;;;;;;9.38;2.78;;;10.20;84.20;;;;;;4877963;29;20037;-86
2020/12/18 12:48:42;;;;;;;10.48;2.53;;;10.20;84.30;;;;;;4847092;29;20033;-87